Fair Seas — V7PD2 — position and weather

sailwx.info

Track history (hours):
 
Tides and Currents Weather Stations Pressure Air Temp Water Temp Dewpoint Dewpoint Depression Visibility Wind Speed Wind Dir Waves Ship Positions

Fair Seas

Last reported at 2017-Mar-12 20:34 UTC. Time now 2017-Mar-29 07:26 UTC.
Position N 01°15' E 104°02'.
Warning: this ship's position is 16 days out of date.

Length 250 m; draft 11.2 m.

Type: Ship (hazmat cat C). MMSI: 538003211.

Date/timePositionNaut miles runAvg speedWind from/ knotsBaromVisibWave heightAir tempDewpointWater temp
2017-Mar-12 20:34N 01°15' E 104°02'1111.0
2017-Mar-12 19:34N 01°11' E 103°52'1010.4
2017-Mar-12 18:34N 01°05' E 103°43'9 9.1
2017-Mar-12 17:34N 01°05' E 103°34'1413.5
2017-Mar-12 16:32N 01°13' E 103°23'1413.8
2017-Mar-12 15:31N 01°22' E 103°12'3013.6
2017-Mar-12 13:18N 01°38' E 102°47'1113.8
2017-Mar-12 12:30N 01°43' E 102°37'1313.4
2017-Mar-12 11:33N 01°49' E 102°26'  
Track history (hours):
 
Tides and Currents Weather Stations Pressure Air Temp Water Temp Dewpoint Dewpoint Depression Visibility Wind Speed Wind Dir Waves Ship Positions

Fair Seas

Last reported at 2017-Mar-12 20:34 UTC. Time now 2017-Mar-29 07:26 UTC.
Position N 01°15' E 104°02'.
Warning: this ship's position is 16 days out of date.

Length 250 m; draft 11.2 m.

Type: Ship (hazmat cat C). MMSI: 538003211.

Date/timePositionNaut miles runAvg speedWind from/ knotsBaromVisibWave heightAir tempDewpointWater temp
2017-Mar-12 20:34N 01°15' E 104°02'1111.0
2017-Mar-12 19:34N 01°11' E 103°52'1010.4
2017-Mar-12 18:34N 01°05' E 103°43'9 9.1
2017-Mar-12 17:34N 01°05' E 103°34'1413.5
2017-Mar-12 16:32N 01°13' E 103°23'1413.8
2017-Mar-12 15:31N 01°22' E 103°12'3013.6
2017-Mar-12 13:18N 01°38' E 102°47'1113.8
2017-Mar-12 12:30N 01°43' E 102°37'1313.4
2017-Mar-12 11:33N 01°49' E 102°26'  

Dump ship's entire track history